Terminal Aerodrome Forecast
Issued by NWS Northern Indiana

Home | Current Version | Previous Version | Text Only | Print | Product List | Glossary On
Versions: 1 2 3 4 5 6 7 8 9 10 11 12
000
FTUS43 KIWX 241120
TAFFWA
TAF
KFWA 241120Z 2412/2512 20007KT P6SM FEW250
     FM241700 20014G22KT P6SM FEW120 SCT200
     FM250600 25011KT P6SM BKN090=

USA.gov is the U.S. government's official web portal to all federal, state and local government web resources and services.